createdAt,value
2022-11-09T00:01:16.576Z,98300.75
2022-11-09T00:03:18.359Z,98299.63
2022-11-09T00:05:20.405Z,98292.22
2022-11-09T00:07:22.095Z,98289.50
2022-11-09T00:09:23.735Z,98283.44
2022-11-09T00:11:25.542Z,98279.84
2022-11-09T00:13:27.092Z,98289.75
2022-11-09T00:15:29.106Z,98285.09
2022-11-09T00:17:30.969Z,98279.84
2022-11-09T00:19:32.881Z,98279.34
2022-11-09T00:21:34.550Z,98277.41
2022-11-09T00:23:36.504Z,98276.06
2022-11-09T00:25:38.160Z,98276.88
2022-11-09T00:27:42.720Z,98263.44
2022-11-09T00:29:44.743Z,98273.59
2022-11-09T00:31:46.509Z,98261.81
2022-11-09T00:33:55.858Z,98271.66
2022-11-09T00:35:57.773Z,98260.97
2022-11-09T00:38:00.454Z,98266.16
2022-11-09T00:40:02.479Z,98265.34
2022-11-09T00:42:04.112Z,98263.44
2022-11-09T00:44:06.020Z,98268.41
2022-11-09T00:46:08.917Z,98279.66
2022-11-09T00:48:10.754Z,98281.28
2022-11-09T00:50:12.878Z,98285.94
2022-11-09T00:52:16.722Z,98283.50
2022-11-09T00:54:18.225Z,98289.00
2022-11-09T00:56:21.541Z,98298.06
2022-11-09T00:58:23.411Z,98294.50
2022-11-09T01:00:25.484Z,98296.41
2022-11-09T01:02:28.083Z,98292.84
2022-11-09T01:04:32.038Z,98289.00
2022-11-09T01:06:34.518Z,98276.97
2022-11-09T01:08:37.419Z,98278.59
2022-11-09T01:10:45.237Z,98270.34
2022-11-09T01:12:46.863Z,98266.78
2022-11-09T01:14:49.532Z,98255.00
2022-11-09T01:16:51.533Z,98251.44
2022-11-09T01:18:55.191Z,98261.59
2022-11-09T01:20:59.010Z,98261.88
2022-11-09T01:23:00.646Z,98251.19
2022-11-09T01:25:05.520Z,98255.31
2022-11-09T01:27:07.098Z,98260.81
2022-11-09T01:29:08.643Z,98259.97
2022-11-09T01:31:15.958Z,98244.63
2022-11-09T01:33:20.661Z,98246.56
2022-11-09T01:35:22.604Z,98255.09
2022-11-09T01:37:24.112Z,98251.78
2022-11-09T01:39:28.515Z,98247.13
2022-11-09T01:41:30.592Z,98247.13
2022-11-09T01:43:32.671Z,98236.97
2022-11-09T01:45:34.356Z,98250.69
2022-11-09T01:47:36.024Z,98242.47
2022-11-09T01:49:55.157Z,98239.19
2022-11-09T01:52:05.960Z,98236.97
2022-11-09T01:54:15.419Z,98233.41
2022-11-09T01:56:18.440Z,98238.06
2022-11-09T01:58:28.998Z,98239.19
2022-11-09T02:00:33.602Z,98236.66
2022-11-09T02:02:38.461Z,98246.56
2022-11-09T02:04:48.600Z,98263.81
2022-11-09T02:06:51.012Z,98250.66
2022-11-09T02:08:59.797Z,98259.72
2022-11-09T02:11:08.997Z,98256.97
2022-11-09T02:13:14.326Z,98261.88
2022-11-09T02:15:16.598Z,98252.31
2022-11-09T02:17:20.254Z,98246.50
2022-11-09T02:19:21.962Z,98251.69
2022-11-09T02:21:27.220Z,98254.75
2022-11-09T02:23:29.525Z,98257.50
2022-11-09T02:25:31.302Z,98251.69
2022-11-09T02:27:33.268Z,98245.41
2022-11-09T02:29:39.292Z,98244.59
2022-11-09T02:31:48.616Z,98252.00
2022-11-09T02:33:51.307Z,98251.19
2022-11-09T02:35:53.159Z,98256.97
2022-11-09T02:37:56.375Z,98262.72
2022-11-09T02:40:02.312Z,98249.56
2022-11-09T02:42:14.628Z,98247.91
2022-11-09T02:44:20.469Z,98253.91
2022-11-09T02:46:31.594Z,98259.97
2022-11-09T02:48:36.194Z,98254.75
2022-11-09T02:50:37.801Z,98257.78
2022-11-09T02:52:40.519Z,98249.00
2022-11-09T02:54:42.930Z,98256.66
2022-11-09T02:56:44.596Z,98254.22
2022-11-09T02:58:46.299Z,98254.75
2022-11-09T03:00:48.014Z,98260.53
2022-11-09T03:02:53.528Z,98269.03
2022-11-09T03:04:55.954Z,98279.44
2022-11-09T03:06:57.976Z,98277.53
2022-11-09T03:09:10.464Z,98288.50
2022-11-09T03:11:12.318Z,98282.50
2022-11-09T03:13:13.792Z,98282.50
2022-11-09T03:15:15.664Z,98283.84
2022-11-09T03:17:20.228Z,98284.94
2022-11-09T03:19:21.885Z,98284.41
2022-11-09T03:21:26.365Z,98299.22
2022-11-09T03:23:27.948Z,98287.97
2022-11-09T03:25:30.051Z,98283.00
2022-11-09T03:27:34.016Z,98289.84
2022-11-09T03:29:36.256Z,98285.72
2022-11-09T03:31:38.293Z,98289.56
2022-11-09T03:33:43.107Z,98293.13
2022-11-09T03:35:44.938Z,98300.53
2022-11-09T03:37:50.361Z,98298.31
2022-11-09T03:39:52.249Z,98294.78
2022-11-09T03:41:53.875Z,98294.22
2022-11-09T03:43:55.468Z,98294.50
2022-11-09T03:45:57.700Z,98291.75
2022-11-09T03:48:00.085Z,98299.44
2022-11-09T03:50:01.681Z,98297.53
2022-11-09T03:52:03.400Z,98296.69
2022-11-09T03:54:06.073Z,98290.38
2022-11-09T03:56:07.912Z,98282.44
2022-11-09T03:58:11.244Z,98282.44
2022-11-09T04:00:15.542Z,98273.63
2022-11-09T04:02:18.411Z,98266.50
2022-11-09T04:04:20.178Z,98270.88
2022-11-09T04:06:22.008Z,98275.84
2022-11-09T04:08:23.550Z,98285.72
2022-11-09T04:10:26.625Z,98284.59
2022-11-09T04:12:28.184Z,98288.72
2022-11-09T04:14:29.764Z,98295.34
2022-11-09T04:16:31.622Z,98299.72
2022-11-09T04:18:33.580Z,98299.72
2022-11-09T04:20:35.650Z,98298.91
2022-11-09T04:22:37.377Z,98305.19
2022-11-09T04:24:39.068Z,98309.06
2022-11-09T04:26:40.654Z,98302.75
2022-11-09T04:28:42.219Z,98292.59
2022-11-09T04:30:43.973Z,98292.06
2022-11-09T04:32:45.739Z,98304.41
2022-11-09T04:34:47.480Z,98309.91
2022-11-09T04:36:49.234Z,98301.09
2022-11-09T04:38:50.891Z,98303.84
2022-11-09T04:40:52.507Z,98311.28
2022-11-09T04:42:54.886Z,98308.81
2022-11-09T04:44:56.586Z,98304.97
2022-11-09T04:46:58.195Z,98295.91
2022-11-09T04:48:59.840Z,98292.63
2022-11-09T04:51:03.435Z,98298.41
2022-11-09T04:53:21.137Z,98289.06
2022-11-09T04:55:23.018Z,98304.97
2022-11-09T04:57:24.806Z,98313.19
2022-11-09T04:59:26.402Z,98316.19
2022-11-09T05:01:28.073Z,98327.47
2022-11-09T05:03:29.768Z,98335.13
2022-11-09T05:05:33.839Z,98322.50
2022-11-09T05:07:37.430Z,98320.56
2022-11-09T05:09:39.194Z,98319.75
2022-11-09T05:11:40.801Z,98321.66
2022-11-09T05:13:43.016Z,98316.47
2022-11-09T05:15:44.798Z,98320.88
2022-11-09T05:17:46.286Z,98326.38
2022-11-09T05:19:55.782Z,98323.03
2022-11-09T05:22:17.671Z,98326.34
2022-11-09T05:24:19.336Z,98326.88
2022-11-09T05:26:20.876Z,98331.56
2022-11-09T05:28:22.498Z,98340.63
2022-11-09T05:30:24.191Z,98343.31
2022-11-09T05:32:25.801Z,98345.78
2022-11-09T05:34:27.286Z,98349.34
2022-11-09T05:36:30.655Z,98350.44
2022-11-09T05:38:32.269Z,98351.56
2022-11-09T05:40:34.758Z,98363.63
2022-11-09T05:42:39.779Z,98369.13
2022-11-09T05:44:41.569Z,98373.00
2022-11-09T05:46:43.309Z,98378.47
2022-11-09T05:48:46.079Z,98375.16
2022-11-09T05:50:47.783Z,98372.44
2022-11-09T05:52:59.531Z,98371.63
2022-11-09T05:55:01.662Z,98377.38
2022-11-09T05:57:03.433Z,98366.41
2022-11-09T05:59:05.062Z,98359.28
2022-11-09T06:01:14.953Z,98363.97
2022-11-09T06:03:16.832Z,98363.13
2022-11-09T06:05:20.299Z,98357.94
2022-11-09T06:07:21.871Z,98356.59
2022-11-09T06:09:23.820Z,98356.59
2022-11-09T06:11:25.634Z,98360.41
2022-11-09T06:13:28.179Z,98358.75
2022-11-09T06:15:30.126Z,98358.75
2022-11-09T06:17:32.213Z,98356.31
2022-11-09T06:19:34.094Z,98353.31
2022-11-09T06:21:38.449Z,98354.44
2022-11-09T06:23:40.969Z,98361.00
2022-11-09T06:25:46.483Z,98353.91
2022-11-09T06:27:49.019Z,98347.06
2022-11-09T06:29:50.584Z,98352.28
2022-11-09T06:31:52.534Z,98353.38
2022-11-09T06:33:54.410Z,98353.66
2022-11-09T06:35:57.263Z,98358.31
2022-11-09T06:38:00.221Z,98362.19
2022-11-09T06:40:02.005Z,98364.34
2022-11-09T06:42:04.218Z,98361.91
2022-11-09T06:44:07.082Z,98363.28
2022-11-09T06:46:11.142Z,98368.78
2022-11-09T06:48:13.269Z,98378.66
2022-11-09T06:50:17.814Z,98382.78
2022-11-09T06:52:19.336Z,98377.56
2022-11-09T06:54:21.080Z,98384.97
2022-11-09T06:56:25.768Z,98388.84
2022-11-09T06:58:27.984Z,98377.03
2022-11-09T07:00:29.756Z,98393.50
2022-11-09T07:02:31.668Z,98385.81
2022-11-09T07:04:33.832Z,98385.28
2022-11-09T07:06:40.598Z,98390.47
2022-11-09T07:08:42.260Z,98384.19
2022-11-09T07:10:45.313Z,98389.94
2022-11-09T07:12:47.183Z,98399.28
2022-11-09T07:14:55.327Z,98391.06
2022-11-09T07:16:56.914Z,98395.44
2022-11-09T07:19:06.166Z,98392.16
2022-11-09T07:21:13.735Z,98389.69
2022-11-09T07:23:15.927Z,98400.66
2022-11-09T07:25:18.207Z,98397.38
2022-11-09T07:27:22.418Z,98409.97
2022-11-09T07:29:28.081Z,98402.06
2022-11-09T07:31:30.922Z,98400.09
2022-11-09T07:33:33.330Z,98402.84
2022-11-09T07:35:35.232Z,98418.22
2022-11-09T07:37:37.170Z,98410.28
2022-11-09T07:39:38.923Z,98409.97
2022-11-09T07:41:40.641Z,98417.91
2022-11-09T07:43:42.626Z,98428.09
2022-11-09T07:45:44.356Z,98426.44
2022-11-09T07:47:45.958Z,98417.38
2022-11-09T07:49:48.686Z,98414.63
2022-11-09T07:51:50.605Z,98417.13
2022-11-09T07:53:52.398Z,98419.88
2022-11-09T07:55:59.006Z,98418.50
2022-11-09T07:58:03.996Z,98421.25
2022-11-09T08:00:06.457Z,98419.88
2022-11-09T08:02:13.141Z,98420.13
2022-11-09T08:04:14.937Z,98420.94
2022-11-09T08:06:18.573Z,98415.75
2022-11-09T08:08:20.707Z,98422.63
2022-11-09T08:10:22.756Z,98426.44
2022-11-09T08:12:24.592Z,98431.94
2022-11-09T08:14:26.528Z,98431.94
2022-11-09T08:16:31.053Z,98429.19
2022-11-09T08:18:35.019Z,98431.94
2022-11-09T08:20:37.032Z,98430.84
2022-11-09T08:22:45.774Z,98433.84
2022-11-09T08:24:47.640Z,98441.25
2022-11-09T08:26:51.778Z,98440.72
2022-11-09T08:28:53.394Z,98445.09
2022-11-09T08:31:04.836Z,98436.88
2022-11-09T08:33:06.535Z,98428.66
2022-11-09T08:35:19.593Z,98440.16
2022-11-09T08:37:21.158Z,98450.28
2022-11-09T08:39:23.646Z,98465.91
2022-11-09T08:41:25.566Z,98462.91
2022-11-09T08:43:27.357Z,98455.53
2022-11-09T08:45:29.816Z,98460.41
2022-11-09T08:47:31.805Z,98449.44
2022-11-09T08:49:33.556Z,98453.84
2022-11-09T08:51:35.366Z,98457.66
2022-11-09T08:53:36.946Z,98470.00
2022-11-09T08:55:38.732Z,98471.94
2022-11-09T08:57:40.570Z,98467.53
2022-11-09T08:59:42.196Z,98477.41
2022-11-09T09:01:43.925Z,98470.28
2022-11-09T09:03:46.688Z,98474.09
2022-11-09T09:05:51.875Z,98472.72
2022-11-09T09:07:53.436Z,98468.06
2022-11-09T09:09:55.097Z,98462.03
2022-11-09T09:11:56.826Z,98455.72
2022-11-09T09:13:58.612Z,98455.72
2022-11-09T09:16:10.643Z,98457.66
2022-11-09T09:18:12.241Z,98444.75
2022-11-09T09:20:13.838Z,98455.72
2022-11-09T09:22:15.465Z,98455.19
2022-11-09T09:24:17.613Z,98452.47
2022-11-09T09:26:19.348Z,98448.34
2022-11-09T09:28:21.416Z,98445.59
2022-11-09T09:30:23.577Z,98440.94
2022-11-09T09:32:25.601Z,98439.00
2022-11-09T09:34:27.371Z,98452.16
2022-11-09T09:36:29.208Z,98469.19
2022-11-09T09:38:31.107Z,98468.06
2022-11-09T09:40:41.668Z,98472.19
2022-11-09T09:42:46.310Z,98465.31
2022-11-09T09:44:59.768Z,98464.75
2022-11-09T09:47:15.515Z,98460.94
2022-11-09T09:49:23.483Z,98459.53
2022-11-09T09:51:35.769Z,98470.22
2022-11-09T09:53:46.003Z,98462.25
2022-11-09T09:55:56.729Z,98458.66
2022-11-09T09:58:06.271Z,98457.28
2022-11-09T10:00:10.489Z,98449.84
2022-11-09T10:02:24.920Z,98443.22
2022-11-09T10:04:41.418Z,98445.69
2022-11-09T10:07:16.908Z,98437.16
2022-11-09T10:09:27.963Z,98427.53
2022-11-09T10:11:42.022Z,98431.34
2022-11-09T10:14:09.541Z,98424.47
2022-11-09T10:16:33.230Z,98420.06
2022-11-09T10:18:51.926Z,98419.22
2022-11-09T10:21:15.693Z,98412.59
2022-11-09T10:23:40.053Z,98415.53
2022-11-09T10:26:03.752Z,98432.50
2022-11-09T10:28:14.248Z,98428.41
2022-11-09T10:30:19.401Z,98418.72
2022-11-09T10:32:23.410Z,98420.59
2022-11-09T10:34:29.224Z,98429.06
2022-11-09T10:36:39.752Z,98437.28
2022-11-09T10:38:49.333Z,98433.13
2022-11-09T10:41:30.175Z,98413.63
2022-11-09T10:43:50.428Z,98407.56
2022-11-09T10:46:11.212Z,98410.84
2022-11-09T10:48:37.056Z,98405.84
2022-11-09T10:50:58.412Z,98398.97
2022-11-09T10:53:20.399Z,98406.91
2022-11-09T10:55:57.643Z,98411.00
2022-11-09T10:58:38.923Z,98415.94
2022-11-09T11:01:05.203Z,98417.53
2022-11-09T11:03:26.190Z,98408.41
2022-11-09T11:05:58.336Z,98399.59
2022-11-09T11:08:25.675Z,98409.72
2022-11-09T11:10:55.174Z,98415.69
2022-11-09T11:13:24.195Z,98410.97
2022-11-09T11:15:45.236Z,98415.31
2022-11-09T11:18:15.287Z,98407.81
2022-11-09T11:20:37.750Z,98413.81
2022-11-09T11:23:18.516Z,98398.63
2022-11-09T11:25:55.706Z,98395.53
2022-11-09T11:28:44.482Z,98400.69
2022-11-09T11:31:06.602Z,98395.38
2022-11-09T11:33:26.973Z,98390.63
2022-11-09T11:35:54.466Z,98381.72
2022-11-09T11:38:41.677Z,98380.44
2022-11-09T11:41:40.052Z,98375.03
2022-11-09T11:44:38.223Z,98369.53
2022-11-09T11:47:10.581Z,98365.31
2022-11-09T11:49:44.641Z,98358.41
2022-11-09T11:52:17.613Z,98354.16
2022-11-09T11:54:41.159Z,98359.31
2022-11-09T11:57:20.779Z,98360.66
2022-11-09T11:59:48.153Z,98360.34
2022-11-09T12:02:40.629Z,98354.28
2022-11-09T12:05:35.322Z,98345.56
2022-11-09T12:08:15.325Z,98350.31
2022-11-09T12:10:56.437Z,98342.06
2022-11-09T12:13:49.488Z,98337.22
2022-11-09T12:16:36.806Z,98331.19
2022-11-09T12:19:28.434Z,98325.97
2022-11-09T12:22:06.345Z,98321.63
2022-11-09T12:24:35.921Z,98317.34
2022-11-09T12:27:31.639Z,98319.47
2022-11-09T12:30:06.319Z,98321.84
2022-11-09T12:32:45.503Z,98314.91
2022-11-09T12:35:12.440Z,98320.16
2022-11-09T12:37:37.315Z,98313.97
2022-11-09T12:40:23.722Z,98317.59
2022-11-09T12:42:49.328Z,98313.69
2022-11-09T12:45:26.344Z,98314.00
2022-11-09T12:47:47.388Z,98311.56
2022-11-09T12:50:14.591Z,98315.84
2022-11-09T12:52:37.166Z,98313.25
2022-11-09T12:55:01.219Z,98319.44
2022-11-09T12:57:27.890Z,98312.75
2022-11-09T12:59:51.319Z,98316.50
2022-11-09T13:02:23.810Z,98314.25
2022-11-09T13:04:55.545Z,98315.84
2022-11-09T13:07:43.521Z,98317.00
2022-11-09T13:10:05.541Z,98315.38
2022-11-09T13:12:42.693Z,98308.84
2022-11-09T13:15:39.368Z,98311.44
2022-11-09T13:17:59.464Z,98308.50
2022-11-09T13:20:54.125Z,98313.06
2022-11-09T13:23:59.099Z,98316.13
2022-11-09T13:26:46.432Z,98320.53
2022-11-09T13:29:23.551Z,98315.97
2022-11-09T13:32:01.978Z,98320.19
2022-11-09T13:34:57.093Z,98317.25
2022-11-09T13:37:36.454Z,98335.03
2022-11-09T13:39:56.659Z,98328.50
2022-11-09T13:42:29.715Z,98341.66
2022-11-09T13:44:50.129Z,98334.50
2022-11-09T13:47:23.907Z,98335.50
2022-11-09T13:49:48.390Z,98342.16
2022-11-09T13:52:47.671Z,98336.28
2022-11-09T13:55:31.663Z,98345.22
2022-11-09T13:57:55.723Z,98359.06
2022-11-09T14:00:24.853Z,98354.16
2022-11-09T14:03:24.881Z,98361.97
2022-11-09T14:05:45.483Z,98357.91
2022-11-09T14:08:05.993Z,98355.44
2022-11-09T14:10:42.273Z,98350.38
2022-11-09T14:13:08.785Z,98347.09
2022-11-09T14:16:03.712Z,98346.91
2022-11-09T14:18:42.819Z,98354.72
2022-11-09T14:21:33.274Z,98352.09
2022-11-09T14:23:54.540Z,98361.84
2022-11-09T14:26:24.378Z,98369.94
2022-11-09T14:28:44.749Z,98369.44
2022-11-09T14:31:05.142Z,98370.09
2022-11-09T14:33:28.359Z,98377.06
2022-11-09T14:35:50.225Z,98365.00
2022-11-09T14:38:31.234Z,98366.78
2022-11-09T14:40:54.946Z,98371.00
2022-11-09T14:43:26.048Z,98366.72
2022-11-09T14:45:52.108Z,98375.66
2022-11-09T14:48:23.822Z,98370.75
2022-11-09T14:50:44.170Z,98377.72
2022-11-09T14:53:05.730Z,98377.25
2022-11-09T14:55:33.370Z,98377.88
2022-11-09T14:57:55.274Z,98379.63
2022-11-09T15:00:40.621Z,98373.13
2022-11-09T15:03:30.320Z,98375.19
2022-11-09T15:06:02.416Z,98384.09
2022-11-09T15:08:23.762Z,98376.44
2022-11-09T15:10:57.147Z,98380.97
2022-11-09T15:13:19.802Z,98384.84
2022-11-09T15:15:40.518Z,98377.81
2022-11-09T15:18:01.296Z,98385.91
2022-11-09T15:20:22.144Z,98386.25
2022-11-09T15:22:42.396Z,98381.31
2022-11-09T15:25:18.126Z,98379.78
2022-11-09T15:27:38.433Z,98379.56
2022-11-09T15:29:58.907Z,98389.00
2022-11-09T15:32:19.981Z,98389.13
2022-11-09T15:34:54.466Z,98389.25
2022-11-09T15:37:31.093Z,98392.13
2022-11-09T15:39:52.238Z,98399.09
2022-11-09T15:42:13.355Z,98401.34
2022-11-09T15:44:34.892Z,98398.88
2022-11-09T15:46:55.180Z,98397.38
2022-11-09T15:49:26.205Z,98405.44
2022-11-09T15:51:47.073Z,98399.72
2022-11-09T15:54:07.752Z,98405.88
2022-11-09T15:56:28.072Z,98412.31
2022-11-09T15:58:49.948Z,98409.38
2022-11-09T16:01:11.606Z,98406.38
2022-11-09T16:03:31.739Z,98408.97
2022-11-09T16:05:52.307Z,98415.09
2022-11-09T16:08:13.350Z,98410.19
2022-11-09T16:10:39.210Z,98417.47
2022-11-09T16:13:07.083Z,98416.41
2022-11-09T16:15:27.607Z,98418.66
2022-11-09T16:17:50.318Z,98432.25
2022-11-09T16:20:10.868Z,98427.88
2022-11-09T16:22:34.819Z,98432.34
2022-11-09T16:24:55.353Z,98437.38
2022-11-09T16:27:35.276Z,98439.94
2022-11-09T16:29:56.350Z,98432.25
2022-11-09T16:32:19.258Z,98439.47
2022-11-09T16:34:39.725Z,98445.31
2022-11-09T16:37:06.163Z,98436.00
2022-11-09T16:39:26.557Z,98439.88
2022-11-09T16:41:51.231Z,98439.38
2022-11-09T16:44:13.480Z,98442.41
2022-11-09T16:46:34.151Z,98445.00
2022-11-09T16:48:55.536Z,98450.78
2022-11-09T16:51:15.942Z,98441.19
2022-11-09T16:53:36.436Z,98456.41
2022-11-09T16:55:56.984Z,98446.50
2022-11-09T16:58:17.816Z,98457.31
2022-11-09T17:01:08.906Z,98451.28
2022-11-09T17:03:25.687Z,98453.53
2022-11-09T17:05:48.967Z,98447.50
2022-11-09T17:08:11.667Z,98456.06
2022-11-09T17:10:32.061Z,98464.66
2022-11-09T17:12:55.443Z,98464.16
2022-11-09T17:15:17.176Z,98464.44
2022-11-09T17:17:44.664Z,98459.22
2022-11-09T17:20:07.141Z,98468.94
2022-11-09T17:22:29.669Z,98465.63
2022-11-09T17:24:50.213Z,98464.00
2022-11-09T17:27:14.193Z,98480.56
2022-11-09T17:29:34.738Z,98477.56
2022-11-09T17:31:54.839Z,98482.25
2022-11-09T17:34:18.312Z,98487.25
2022-11-09T17:37:02.988Z,98482.06
2022-11-09T17:39:19.532Z,98482.34
2022-11-09T17:41:42.804Z,98485.41
2022-11-09T17:44:03.037Z,98494.78
2022-11-09T17:46:23.937Z,98493.16
2022-11-09T17:48:45.895Z,98496.22
2022-11-09T17:51:08.022Z,98495.19
2022-11-09T17:53:29.148Z,98506.22
2022-11-09T17:55:50.143Z,98504.56
2022-11-09T17:58:11.785Z,98510.69
2022-11-09T18:00:31.813Z,98510.97
2022-11-09T18:02:59.499Z,98512.41
2022-11-09T18:05:19.834Z,98516.81
2022-11-09T18:07:39.704Z,98519.84
2022-11-09T18:10:00.180Z,98522.59
2022-11-09T18:12:20.452Z,98529.53
2022-11-09T18:14:40.432Z,98527.91
2022-11-09T18:17:01.658Z,98528.19
2022-11-09T18:19:22.085Z,98544.44
2022-11-09T18:21:45.000Z,98545.56
2022-11-09T18:24:05.575Z,98548.09
2022-11-09T18:26:25.676Z,98549.22
2022-11-09T18:28:45.745Z,98549.22
2022-11-09T18:31:12.128Z,98551.13
2022-11-09T18:33:32.119Z,98553.63
2022-11-09T18:36:05.276Z,98556.97
2022-11-09T18:38:29.110Z,98558.59
2022-11-09T18:40:58.031Z,98563.56
2022-11-09T18:43:18.211Z,98561.97
2022-11-09T18:45:38.546Z,98563.06
2022-11-09T18:47:58.575Z,98560.31
2022-11-09T18:50:19.673Z,98565.00
2022-11-09T18:52:39.894Z,98562.53
2022-11-09T18:55:02.204Z,98574.66
2022-11-09T18:57:23.181Z,98584.06
2022-11-09T18:59:43.503Z,98583.50
2022-11-09T19:02:03.787Z,98581.88
2022-11-09T19:04:24.170Z,98582.97
2022-11-09T19:06:45.011Z,98582.44
2022-11-09T19:09:25.045Z,98581.63
2022-11-09T19:11:45.674Z,98583.88
2022-11-09T19:14:05.958Z,98573.16
2022-11-09T19:16:27.947Z,98579.75
2022-11-09T19:18:48.370Z,98576.19
2022-11-09T19:21:24.881Z,98585.28
2022-11-09T19:23:44.993Z,98583.94
2022-11-09T19:26:05.555Z,98575.97
2022-11-09T19:28:28.433Z,98579.81
2022-11-09T19:30:50.253Z,98593.91
2022-11-09T19:33:11.129Z,98583.16
2022-11-09T19:35:34.060Z,98581.53
2022-11-09T19:37:54.804Z,98589.81
2022-11-09T19:40:15.610Z,98587.31
2022-11-09T19:42:36.212Z,98587.63
2022-11-09T19:44:57.855Z,98589.25
2022-11-09T19:47:19.094Z,98587.13
2022-11-09T19:49:39.445Z,98581.06
2022-11-09T19:51:59.834Z,98590.44
2022-11-09T19:54:20.219Z,98600.34
2022-11-09T19:56:40.511Z,98593.78
2022-11-09T19:59:02.262Z,98608.38
2022-11-09T20:01:23.647Z,98615.81
2022-11-09T20:03:44.681Z,98612.53
2022-11-09T20:06:06.464Z,98614.47
2022-11-09T20:08:27.250Z,98615.88
2022-11-09T20:10:49.386Z,98623.63
2022-11-09T20:13:09.767Z,98619.22
2022-11-09T20:15:30.222Z,98623.09
2022-11-09T20:17:53.276Z,98626.44
2022-11-09T20:20:15.321Z,98625.59
2022-11-09T20:22:38.621Z,98634.97
2022-11-09T20:24:58.822Z,98644.63
2022-11-09T20:27:19.358Z,98640.25
2022-11-09T20:29:39.775Z,98650.75
2022-11-09T20:32:00.168Z,98654.59
2022-11-09T20:34:20.361Z,98657.66
2022-11-09T20:36:40.467Z,98657.94
2022-11-09T20:39:01.034Z,98654.34
2022-11-09T20:41:25.179Z,98660.16
2022-11-09T20:43:46.886Z,98660.72
2022-11-09T20:46:09.782Z,98663.50
2022-11-09T20:48:52.836Z,98665.72
2022-11-09T20:51:15.266Z,98678.66
2022-11-09T20:53:36.186Z,98670.38
2022-11-09T20:55:56.607Z,98683.34
2022-11-09T20:58:16.551Z,98677.88
2022-11-09T21:00:39.702Z,98679.53
2022-11-09T21:02:59.916Z,98687.78
2022-11-09T21:05:20.634Z,98689.72
2022-11-09T21:07:41.700Z,98691.63
2022-11-09T21:10:02.153Z,98691.09
2022-11-09T21:12:22.519Z,98696.91
2022-11-09T21:14:42.842Z,98700.50
2022-11-09T21:17:02.986Z,98702.69
2022-11-09T21:19:22.859Z,98699.94
2022-11-09T21:21:43.550Z,98706.56
2022-11-09T21:24:22.406Z,98710.44
2022-11-09T21:27:01.712Z,98708.81
2022-11-09T21:29:42.874Z,98708.81
2022-11-09T21:32:04.263Z,98718.16
2022-11-09T21:34:24.512Z,98716.50
2022-11-09T21:36:44.928Z,98728.91
2022-11-09T21:39:05.669Z,98724.22
2022-11-09T21:41:37.760Z,98717.91
2022-11-09T21:43:57.734Z,98724.53
2022-11-09T21:46:17.859Z,98729.22
2022-11-09T21:48:38.285Z,98729.22
2022-11-09T21:51:01.820Z,98735.81
2022-11-09T21:53:29.017Z,98735.81
2022-11-09T21:55:50.296Z,98734.19
2022-11-09T21:58:13.189Z,98738.03
2022-11-09T22:00:34.843Z,98739.13
2022-11-09T22:02:56.864Z,98739.97
2022-11-09T22:05:22.602Z,98740.25
2022-11-09T22:07:43.287Z,98743.00
2022-11-09T22:10:10.468Z,98743.00
2022-11-09T22:12:59.370Z,98749.06
2022-11-09T22:15:38.219Z,98760.66
2022-11-09T22:18:00.471Z,98757.91
2022-11-09T22:20:59.971Z,98764.53
2022-11-09T22:23:22.793Z,98762.03
2022-11-09T22:25:47.770Z,98763.97
2022-11-09T22:28:15.176Z,98763.44
2022-11-09T22:30:35.465Z,98770.88
2022-11-09T22:32:57.998Z,98773.34
2022-11-09T22:35:18.318Z,98776.38
2022-11-09T22:37:40.402Z,98775.56
2022-11-09T22:40:00.935Z,98781.34
2022-11-09T22:42:21.140Z,98781.88
2022-11-09T22:44:41.138Z,98776.38
2022-11-09T22:47:03.944Z,98768.41
2022-11-09T22:49:25.358Z,98775.56
2022-11-09T22:51:45.688Z,98784.38
2022-11-09T22:54:11.807Z,98781.91
2022-11-09T22:56:32.007Z,98808.63
2022-11-09T22:58:55.325Z,98802.28
2022-11-09T23:01:18.314Z,98807.78
2022-11-09T23:03:39.037Z,98810.81
2022-11-09T23:06:08.916Z,98822.41
2022-11-09T23:08:36.706Z,98822.41
2022-11-09T23:10:58.408Z,98836.41
2022-11-09T23:13:19.326Z,98834.78
2022-11-09T23:15:42.475Z,98827.91
2022-11-09T23:18:21.641Z,98836.19
2022-11-09T23:20:42.733Z,98834.81
2022-11-09T23:23:02.780Z,98847.75
2022-11-09T23:25:48.747Z,98846.91
2022-11-09T23:28:14.098Z,98843.88
2022-11-09T23:30:34.685Z,98849.69
2022-11-09T23:32:54.970Z,98855.47
2022-11-09T23:35:15.159Z,98847.47
2022-11-09T23:37:35.406Z,98852.97
2022-11-09T23:39:56.790Z,98862.63
2022-11-09T23:42:17.135Z,98866.50
2022-11-09T23:44:40.746Z,98864.84
2022-11-09T23:47:03.864Z,98867.59
2022-11-09T23:49:29.408Z,98876.38
2022-11-09T23:51:52.831Z,98881.88
2022-11-09T23:54:13.479Z,98876.38
2022-11-09T23:56:39.802Z,98882.44
2022-11-09T23:58:59.977Z,98880.81
